sensor_id;sensor_type;location;lat;lon;timestamp;P1;durP1;ratioP1;P2;durP2;ratioP2
21480;SDS011;10902;48.158;8.634;2023-05-15T00:02:44;29.52;;;17.73;;
21480;SDS011;10902;48.158;8.634;2023-05-15T00:05:30;29.40;;;17.77;;
21480;SDS011;10902;48.158;8.634;2023-05-15T00:08:16;33.33;;;18.42;;
21480;SDS011;10902;48.158;8.634;2023-05-15T00:11:01;29.92;;;16.90;;
21480;SDS011;10902;48.158;8.634;2023-05-15T00:13:47;30.25;;;17.42;;
21480;SDS011;10902;48.158;8.634;2023-05-15T00:16:37;30.67;;;17.10;;
21480;SDS011;10902;48.158;8.634;2023-05-15T00:19:22;31.80;;;16.90;;
21480;SDS011;10902;48.158;8.634;2023-05-15T00:22:08;32.70;;;17.63;;
21480;SDS011;10902;48.158;8.634;2023-05-15T00:24:53;29.88;;;16.67;;
21480;SDS011;10902;48.158;8.634;2023-05-15T00:27:39;30.13;;;18.05;;
21480;SDS011;10902;48.158;8.634;2023-05-15T00:30:24;30.30;;;17.65;;
21480;SDS011;10902;48.158;8.634;2023-05-15T00:33:10;33.17;;;18.35;;
21480;SDS011;10902;48.158;8.634;2023-05-15T00:35:56;34.80;;;19.38;;
21480;SDS011;10902;48.158;8.634;2023-05-15T00:38:41;34.35;;;18.50;;
21480;SDS011;10902;48.158;8.634;2023-05-15T00:41:27;32.28;;;18.30;;
21480;SDS011;10902;48.158;8.634;2023-05-15T00:44:16;31.88;;;16.73;;
21480;SDS011;10902;48.158;8.634;2023-05-15T00:47:04;36.25;;;19.10;;
21480;SDS011;10902;48.158;8.634;2023-05-15T00:49:51;236.50;;;28.05;;
21480;SDS011;10902;48.158;8.634;2023-05-15T00:52:37;52.45;;;19.77;;
21480;SDS011;10902;48.158;8.634;2023-05-15T00:55:22;65.30;;;21.98;;
21480;SDS011;10902;48.158;8.634;2023-05-15T00:58:10;55.75;;;23.02;;
21480;SDS011;10902;48.158;8.634;2023-05-15T01:00:57;104.82;;;28.30;;
21480;SDS011;10902;48.158;8.634;2023-05-15T01:03:43;67.63;;;26.13;;
21480;SDS011;10902;48.158;8.634;2023-05-15T01:06:29;423.30;;;50.22;;
21480;SDS011;10902;48.158;8.634;2023-05-15T01:09:15;48.97;;;23.60;;
21480;SDS011;10902;48.158;8.634;2023-05-15T01:12:03;36.72;;;19.27;;
21480;SDS011;10902;48.158;8.634;2023-05-15T01:14:49;39.28;;;18.80;;
21480;SDS011;10902;48.158;8.634;2023-05-15T01:17:35;30.10;;;17.98;;
21480;SDS011;10902;48.158;8.634;2023-05-15T01:20:21;28.83;;;17.00;;
21480;SDS011;10902;48.158;8.634;2023-05-15T01:23:24;22.20;;;14.65;;
21480;SDS011;10902;48.158;8.634;2023-05-15T01:26:31;30.88;;;15.27;;
21480;SDS011;10902;48.158;8.634;2023-05-15T01:35:49;25.90;;;14.43;;
21480;SDS011;10902;48.158;8.634;2023-05-15T01:38:43;35.97;;;20.85;;
21480;SDS011;10902;48.158;8.634;2023-05-15T01:42:15;25.92;;;14.60;;
21480;SDS011;10902;48.158;8.634;2023-05-15T01:44:54;32.67;;;17.17;;
21480;SDS011;10902;48.158;8.634;2023-05-15T01:47:43;34.63;;;18.48;;
21480;SDS011;10902;48.158;8.634;2023-05-15T01:50:30;43.05;;;22.52;;
21480;SDS011;10902;48.158;8.634;2023-05-15T01:53:18;45.88;;;22.13;;
21480;SDS011;10902;48.158;8.634;2023-05-15T01:56:04;42.80;;;22.80;;
21480;SDS011;10902;48.158;8.634;2023-05-15T01:58:52;47.70;;;23.65;;
21480;SDS011;10902;48.158;8.634;2023-05-15T02:01:39;50.67;;;24.17;;
21480;SDS011;10902;48.158;8.634;2023-05-15T02:04:26;54.22;;;26.58;;
21480;SDS011;10902;48.158;8.634;2023-05-15T02:07:12;50.08;;;24.77;;
21480;SDS011;10902;48.158;8.634;2023-05-15T02:09:59;52.92;;;25.40;;
21480;SDS011;10902;48.158;8.634;2023-05-15T02:12:47;46.22;;;23.95;;
21480;SDS011;10902;48.158;8.634;2023-05-15T02:15:34;51.90;;;25.50;;
21480;SDS011;10902;48.158;8.634;2023-05-15T02:18:20;47.25;;;24.48;;
21480;SDS011;10902;48.158;8.634;2023-05-15T02:21:06;46.72;;;24.50;;
21480;SDS011;10902;48.158;8.634;2023-05-15T02:23:52;48.88;;;25.60;;
21480;SDS011;10902;48.158;8.634;2023-05-15T02:29:37;47.70;;;25.55;;
21480;SDS011;10902;48.158;8.634;2023-05-15T02:32:46;48.40;;;25.65;;
21480;SDS011;10902;48.158;8.634;2023-05-15T02:38:48;50.58;;;26.38;;
21480;SDS011;10902;48.158;8.634;2023-05-15T02:41:39;48.80;;;25.42;;
21480;SDS011;10902;48.158;8.634;2023-05-15T02:44:25;44.17;;;24.25;;
21480;SDS011;10902;48.158;8.634;2023-05-15T02:47:11;43.83;;;23.35;;
21480;SDS011;10902;48.158;8.634;2023-05-15T02:49:58;47.50;;;24.95;;
21480;SDS011;10902;48.158;8.634;2023-05-15T02:52:45;42.40;;;24.13;;
21480;SDS011;10902;48.158;8.634;2023-05-15T02:55:31;40.97;;;23.55;;
21480;SDS011;10902;48.158;8.634;2023-05-15T02:58:17;43.65;;;24.38;;
21480;SDS011;10902;48.158;8.634;2023-05-15T03:01:03;42.78;;;22.98;;
21480;SDS011;10902;48.158;8.634;2023-05-15T03:03:49;40.38;;;23.13;;
21480;SDS011;10902;48.158;8.634;2023-05-15T03:06:35;45.95;;;23.27;;
21480;SDS011;10902;48.158;8.634;2023-05-15T03:09:21;40.40;;;23.73;;
21480;SDS011;10902;48.158;8.634;2023-05-15T03:12:06;37.70;;;22.10;;
21480;SDS011;10902;48.158;8.634;2023-05-15T03:14:54;40.97;;;22.95;;
21480;SDS011;10902;48.158;8.634;2023-05-15T03:17:40;43.03;;;23.67;;
21480;SDS011;10902;48.158;8.634;2023-05-15T03:20:25;43.83;;;22.80;;
21480;SDS011;10902;48.158;8.634;2023-05-15T03:23:11;38.42;;;21.88;;
21480;SDS011;10902;48.158;8.634;2023-05-15T03:25:56;40.65;;;21.80;;
21480;SDS011;10902;48.158;8.634;2023-05-15T03:28:42;38.63;;;22.80;;
21480;SDS011;10902;48.158;8.634;2023-05-15T03:31:28;39.55;;;22.35;;
21480;SDS011;10902;48.158;8.634;2023-05-15T03:34:13;39.63;;;22.00;;
21480;SDS011;10902;48.158;8.634;2023-05-15T03:36:59;41.85;;;22.98;;
21480;SDS011;10902;48.158;8.634;2023-05-15T03:39:45;36.20;;;20.70;;
21480;SDS011;10902;48.158;8.634;2023-05-15T03:42:30;36.53;;;21.42;;
21480;SDS011;10902;48.158;8.634;2023-05-15T03:45:16;36.90;;;22.42;;
21480;SDS011;10902;48.158;8.634;2023-05-15T03:48:01;33.90;;;21.15;;
21480;SDS011;10902;48.158;8.634;2023-05-15T03:50:47;39.47;;;24.27;;
21480;SDS011;10902;48.158;8.634;2023-05-15T03:53:33;42.45;;;24.42;;
21480;SDS011;10902;48.158;8.634;2023-05-15T03:56:18;45.20;;;24.35;;
21480;SDS011;10902;48.158;8.634;2023-05-15T03:59:05;42.83;;;24.15;;
21480;SDS011;10902;48.158;8.634;2023-05-15T04:01:51;38.65;;;23.63;;
21480;SDS011;10902;48.158;8.634;2023-05-15T04:04:36;39.40;;;22.95;;
21480;SDS011;10902;48.158;8.634;2023-05-15T04:07:22;36.30;;;23.17;;
21480;SDS011;10902;48.158;8.634;2023-05-15T04:10:08;42.47;;;24.33;;
21480;SDS011;10902;48.158;8.634;2023-05-15T04:12:53;38.95;;;23.42;;
21480;SDS011;10902;48.158;8.634;2023-05-15T04:15:39;31.85;;;19.80;;
21480;SDS011;10902;48.158;8.634;2023-05-15T04:18:25;25.70;;;17.17;;
21480;SDS011;10902;48.158;8.634;2023-05-15T04:21:10;31.58;;;20.27;;
21480;SDS011;10902;48.158;8.634;2023-05-15T04:23:56;27.20;;;17.42;;
21480;SDS011;10902;48.158;8.634;2023-05-15T04:26:41;32.17;;;19.52;;
21480;SDS011;10902;48.158;8.634;2023-05-15T04:29:27;30.08;;;19.20;;
21480;SDS011;10902;48.158;8.634;2023-05-15T04:32:13;24.25;;;15.95;;
21480;SDS011;10902;48.158;8.634;2023-05-15T04:34:59;24.60;;;17.13;;
21480;SDS011;10902;48.158;8.634;2023-05-15T04:37:45;26.10;;;16.13;;
21480;SDS011;10902;48.158;8.634;2023-05-15T04:40:30;26.35;;;16.27;;
21480;SDS011;10902;48.158;8.634;2023-05-15T04:43:16;25.23;;;15.30;;
21480;SDS011;10902;48.158;8.634;2023-05-15T04:46:02;25.67;;;15.98;;
21480;SDS011;10902;48.158;8.634;2023-05-15T04:48:47;28.00;;;16.23;;
21480;SDS011;10902;48.158;8.634;2023-05-15T04:51:33;26.85;;;16.25;;
21480;SDS011;10902;48.158;8.634;2023-05-15T04:54:19;24.75;;;15.73;;
21480;SDS011;10902;48.158;8.634;2023-05-15T04:57:04;25.30;;;14.90;;
21480;SDS011;10902;48.158;8.634;2023-05-15T04:59:50;26.35;;;17.65;;
21480;SDS011;10902;48.158;8.634;2023-05-15T05:02:36;27.50;;;16.80;;
21480;SDS011;10902;48.158;8.634;2023-05-15T05:05:23;23.27;;;15.70;;
21480;SDS011;10902;48.158;8.634;2023-05-15T05:08:09;24.42;;;16.02;;
21480;SDS011;10902;48.158;8.634;2023-05-15T05:10:55;25.98;;;16.38;;
21480;SDS011;10902;48.158;8.634;2023-05-15T05:13:44;20.65;;;14.65;;
21480;SDS011;10902;48.158;8.634;2023-05-15T05:16:29;24.70;;;16.20;;
21480;SDS011;10902;48.158;8.634;2023-05-15T05:19:15;21.88;;;15.05;;
21480;SDS011;10902;48.158;8.634;2023-05-15T05:22:01;26.92;;;16.65;;
21480;SDS011;10902;48.158;8.634;2023-05-15T05:24:49;25.65;;;16.23;;
21480;SDS011;10902;48.158;8.634;2023-05-15T05:27:34;24.63;;;16.23;;
21480;SDS011;10902;48.158;8.634;2023-05-15T05:30:20;22.58;;;15.00;;
21480;SDS011;10902;48.158;8.634;2023-05-15T05:33:06;22.48;;;14.85;;
21480;SDS011;10902;48.158;8.634;2023-05-15T05:35:51;21.85;;;14.23;;
21480;SDS011;10902;48.158;8.634;2023-05-15T05:38:37;21.13;;;15.68;;
21480;SDS011;10902;48.158;8.634;2023-05-15T05:41:23;20.40;;;13.77;;
21480;SDS011;10902;48.158;8.634;2023-05-15T05:44:08;23.10;;;14.70;;
21480;SDS011;10902;48.158;8.634;2023-05-15T05:46:54;21.10;;;14.80;;
21480;SDS011;10902;48.158;8.634;2023-05-15T05:49:40;23.27;;;15.88;;
21480;SDS011;10902;48.158;8.634;2023-05-15T05:52:25;23.77;;;15.77;;
21480;SDS011;10902;48.158;8.634;2023-05-15T05:55:13;23.90;;;15.82;;
21480;SDS011;10902;48.158;8.634;2023-05-15T05:57:58;25.17;;;16.60;;
21480;SDS011;10902;48.158;8.634;2023-05-15T06:00:45;22.60;;;15.40;;
21480;SDS011;10902;48.158;8.634;2023-05-15T06:03:31;20.85;;;15.52;;
21480;SDS011;10902;48.158;8.634;2023-05-15T06:06:18;20.38;;;13.70;;
21480;SDS011;10902;48.158;8.634;2023-05-15T06:09:03;18.65;;;14.13;;
21480;SDS011;10902;48.158;8.634;2023-05-15T06:11:49;20.73;;;15.18;;
21480;SDS011;10902;48.158;8.634;2023-05-15T06:14:35;18.80;;;13.82;;
21480;SDS011;10902;48.158;8.634;2023-05-15T06:17:20;18.58;;;12.20;;
21480;SDS011;10902;48.158;8.634;2023-05-15T06:20:06;16.65;;;12.20;;
21480;SDS011;10902;48.158;8.634;2023-05-15T06:22:53;17.25;;;13.13;;
21480;SDS011;10902;48.158;8.634;2023-05-15T06:25:38;17.88;;;12.55;;
21480;SDS011;10902;48.158;8.634;2023-05-15T06:28:24;13.50;;;10.88;;
21480;SDS011;10902;48.158;8.634;2023-05-15T06:31:10;14.30;;;10.50;;
21480;SDS011;10902;48.158;8.634;2023-05-15T06:33:55;13.23;;;9.82;;
21480;SDS011;10902;48.158;8.634;2023-05-15T06:36:41;12.40;;;9.63;;
21480;SDS011;10902;48.158;8.634;2023-05-15T06:39:26;13.32;;;9.88;;
21480;SDS011;10902;48.158;8.634;2023-05-15T06:42:12;12.43;;;9.38;;
21480;SDS011;10902;48.158;8.634;2023-05-15T06:44:59;12.50;;;9.02;;
21480;SDS011;10902;48.158;8.634;2023-05-15T06:47:44;11.20;;;9.05;;
21480;SDS011;10902;48.158;8.634;2023-05-15T06:50:30;12.20;;;9.15;;
21480;SDS011;10902;48.158;8.634;2023-05-15T06:53:15;11.10;;;8.43;;
21480;SDS011;10902;48.158;8.634;2023-05-15T06:56:02;10.48;;;8.40;;
21480;SDS011;10902;48.158;8.634;2023-05-15T06:58:48;9.82;;;7.80;;
21480;SDS011;10902;48.158;8.634;2023-05-15T07:01:33;12.60;;;8.70;;
21480;SDS011;10902;48.158;8.634;2023-05-15T07:04:19;9.88;;;7.97;;
21480;SDS011;10902;48.158;8.634;2023-05-15T07:07:05;11.52;;;8.50;;
21480;SDS011;10902;48.158;8.634;2023-05-15T07:09:51;9.77;;;7.90;;
21480;SDS011;10902;48.158;8.634;2023-05-15T07:12:36;10.70;;;8.55;;
21480;SDS011;10902;48.158;8.634;2023-05-15T07:15:22;10.02;;;7.95;;
21480;SDS011;10902;48.158;8.634;2023-05-15T07:18:07;12.43;;;8.98;;
21480;SDS011;10902;48.158;8.634;2023-05-15T07:20:53;10.18;;;8.30;;
21480;SDS011;10902;48.158;8.634;2023-05-15T07:23:39;12.40;;;7.88;;
21480;SDS011;10902;48.158;8.634;2023-05-15T07:26:24;9.48;;;7.50;;
21480;SDS011;10902;48.158;8.634;2023-05-15T07:29:10;9.57;;;7.50;;
21480;SDS011;10902;48.158;8.634;2023-05-15T07:31:55;9.90;;;7.53;;
21480;SDS011;10902;48.158;8.634;2023-05-15T07:34:41;9.50;;;6.40;;
21480;SDS011;10902;48.158;8.634;2023-05-15T07:37:27;9.60;;;7.35;;
21480;SDS011;10902;48.158;8.634;2023-05-15T07:40:12;8.07;;;6.50;;
21480;SDS011;10902;48.158;8.634;2023-05-15T07:42:59;9.25;;;6.75;;
21480;SDS011;10902;48.158;8.634;2023-05-15T07:45:45;9.75;;;7.13;;
21480;SDS011;10902;48.158;8.634;2023-05-15T07:48:30;8.93;;;6.50;;
21480;SDS011;10902;48.158;8.634;2023-05-15T07:51:16;9.23;;;7.05;;
21480;SDS011;10902;48.158;8.634;2023-05-15T07:54:01;7.38;;;5.95;;
21480;SDS011;10902;48.158;8.634;2023-05-15T07:56:48;7.40;;;5.18;;
21480;SDS011;10902;48.158;8.634;2023-05-15T07:59:34;6.70;;;5.30;;
21480;SDS011;10902;48.158;8.634;2023-05-15T08:02:20;6.47;;;4.80;;
21480;SDS011;10902;48.158;8.634;2023-05-15T08:05:05;8.30;;;5.35;;
21480;SDS011;10902;48.158;8.634;2023-05-15T08:07:51;6.47;;;4.88;;
21480;SDS011;10902;48.158;8.634;2023-05-15T08:10:37;7.38;;;5.00;;
21480;SDS011;10902;48.158;8.634;2023-05-15T08:13:22;7.70;;;5.40;;
21480;SDS011;10902;48.158;8.634;2023-05-15T08:16:08;7.88;;;5.00;;
21480;SDS011;10902;48.158;8.634;2023-05-15T08:18:53;7.32;;;4.88;;
21480;SDS011;10902;48.158;8.634;2023-05-15T08:21:45;5.72;;;4.18;;
21480;SDS011;10902;48.158;8.634;2023-05-15T08:24:30;6.78;;;4.68;;
21480;SDS011;10902;48.158;8.634;2023-05-15T08:27:16;7.30;;;4.57;;
21480;SDS011;10902;48.158;8.634;2023-05-15T08:30:01;7.35;;;4.60;;
21480;SDS011;10902;48.158;8.634;2023-05-15T08:32:48;6.50;;;4.43;;
21480;SDS011;10902;48.158;8.634;2023-05-15T08:35:33;6.53;;;4.53;;
21480;SDS011;10902;48.158;8.634;2023-05-15T08:38:19;7.13;;;4.72;;
21480;SDS011;10902;48.158;8.634;2023-05-15T08:41:07;7.53;;;4.53;;
21480;SDS011;10902;48.158;8.634;2023-05-15T08:43:59;8.27;;;5.30;;
21480;SDS011;10902;48.158;8.634;2023-05-15T08:46:49;5.72;;;4.18;;
21480;SDS011;10902;48.158;8.634;2023-05-15T08:52:54;6.55;;;4.95;;
21480;SDS011;10902;48.158;8.634;2023-05-15T08:55:42;6.75;;;4.30;;
21480;SDS011;10902;48.158;8.634;2023-05-15T08:58:28;5.63;;;4.00;;
21480;SDS011;10902;48.158;8.634;2023-05-15T09:01:14;7.90;;;4.13;;
21480;SDS011;10902;48.158;8.634;2023-05-15T09:04:00;5.10;;;3.38;;
21480;SDS011;10902;48.158;8.634;2023-05-15T09:06:46;5.43;;;3.85;;
21480;SDS011;10902;48.158;8.634;2023-05-15T09:09:32;5.18;;;3.60;;
21480;SDS011;10902;48.158;8.634;2023-05-15T09:12:19;4.60;;;3.15;;
21480;SDS011;10902;48.158;8.634;2023-05-15T09:15:08;4.82;;;3.33;;
21480;SDS011;10902;48.158;8.634;2023-05-15T09:17:55;5.53;;;3.30;;
21480;SDS011;10902;48.158;8.634;2023-05-15T09:20:42;4.70;;;2.88;;
21480;SDS011;10902;48.158;8.634;2023-05-15T09:23:28;6.50;;;3.30;;
21480;SDS011;10902;48.158;8.634;2023-05-15T09:26:14;5.50;;;3.15;;
21480;SDS011;10902;48.158;8.634;2023-05-15T09:29:03;4.80;;;3.17;;
21480;SDS011;10902;48.158;8.634;2023-05-15T09:31:48;5.30;;;3.17;;
21480;SDS011;10902;48.158;8.634;2023-05-15T09:34:36;4.70;;;2.63;;
21480;SDS011;10902;48.158;8.634;2023-05-15T09:37:27;5.53;;;2.70;;
21480;SDS011;10902;48.158;8.634;2023-05-15T09:40:15;4.35;;;2.50;;
21480;SDS011;10902;48.158;8.634;2023-05-15T09:43:03;3.97;;;2.53;;
21480;SDS011;10902;48.158;8.634;2023-05-15T09:45:49;4.68;;;2.33;;
21480;SDS011;10902;48.158;8.634;2023-05-15T09:48:34;4.57;;;2.20;;
21480;SDS011;10902;48.158;8.634;2023-05-15T09:51:20;4.40;;;2.40;;
21480;SDS011;10902;48.158;8.634;2023-05-15T09:54:06;5.05;;;2.38;;
21480;SDS011;10902;48.158;8.634;2023-05-15T09:57:10;3.75;;;2.20;;
21480;SDS011;10902;48.158;8.634;2023-05-15T09:59:59;4.32;;;2.50;;
21480;SDS011;10902;48.158;8.634;2023-05-15T10:02:56;5.57;;;2.78;;
21480;SDS011;10902;48.158;8.634;2023-05-15T10:05:44;4.70;;;3.00;;
21480;SDS011;10902;48.158;8.634;2023-05-15T10:08:30;4.80;;;3.15;;
21480;SDS011;10902;48.158;8.634;2023-05-15T10:11:16;6.25;;;3.72;;
21480;SDS011;10902;48.158;8.634;2023-05-15T10:14:06;10.02;;;4.32;;
21480;SDS011;10902;48.158;8.634;2023-05-15T10:16:53;6.97;;;4.10;;
21480;SDS011;10902;48.158;8.634;2023-05-15T10:19:40;5.25;;;2.63;;
21480;SDS011;10902;48.158;8.634;2023-05-15T10:22:29;4.85;;;3.22;;
21480;SDS011;10902;48.158;8.634;2023-05-15T10:25:34;6.25;;;2.88;;
21480;SDS011;10902;48.158;8.634;2023-05-15T10:28:23;6.45;;;3.88;;
21480;SDS011;10902;48.158;8.634;2023-05-15T10:31:09;5.05;;;2.70;;
21480;SDS011;10902;48.158;8.634;2023-05-15T10:33:55;4.35;;;2.97;;
21480;SDS011;10902;48.158;8.634;2023-05-15T10:36:41;4.65;;;2.75;;
21480;SDS011;10902;48.158;8.634;2023-05-15T10:39:28;5.85;;;2.55;;
21480;SDS011;10902;48.158;8.634;2023-05-15T10:42:14;3.90;;;2.50;;
21480;SDS011;10902;48.158;8.634;2023-05-15T10:45:01;3.80;;;1.50;;
21480;SDS011;10902;48.158;8.634;2023-05-15T10:47:47;4.25;;;1.58;;
21480;SDS011;10902;48.158;8.634;2023-05-15T10:50:35;4.38;;;1.80;;
21480;SDS011;10902;48.158;8.634;2023-05-15T10:53:21;3.50;;;1.50;;
21480;SDS011;10902;48.158;8.634;2023-05-15T10:56:11;4.03;;;1.65;;
21480;SDS011;10902;48.158;8.634;2023-05-15T10:59:06;2.17;;;0.82;;
21480;SDS011;10902;48.158;8.634;2023-05-15T11:01:53;2.80;;;1.45;;
21480;SDS011;10902;48.158;8.634;2023-05-15T11:04:39;3.00;;;1.15;;
21480;SDS011;10902;48.158;8.634;2023-05-15T11:07:25;4.22;;;2.00;;
21480;SDS011;10902;48.158;8.634;2023-05-15T11:13:13;4.10;;;1.80;;
21480;SDS011;10902;48.158;8.634;2023-05-15T11:15:58;3.42;;;1.60;;
21480;SDS011;10902;48.158;8.634;2023-05-15T11:18:44;7.03;;;2.15;;
21480;SDS011;10902;48.158;8.634;2023-05-15T11:21:32;3.08;;;1.55;;
21480;SDS011;10902;48.158;8.634;2023-05-15T11:24:28;11.80;;;1.75;;
21480;SDS011;10902;48.158;8.634;2023-05-15T11:27:38;3.92;;;1.33;;
21480;SDS011;10902;48.158;8.634;2023-05-15T11:30:37;4.82;;;1.45;;
21480;SDS011;10902;48.158;8.634;2023-05-15T11:33:23;3.45;;;1.60;;
21480;SDS011;10902;48.158;8.634;2023-05-15T11:36:13;3.40;;;1.55;;
21480;SDS011;10902;48.158;8.634;2023-05-15T11:38:59;3.13;;;1.40;;
21480;SDS011;10902;48.158;8.634;2023-05-15T11:41:45;3.53;;;1.50;;
21480;SDS011;10902;48.158;8.634;2023-05-15T11:44:31;2.03;;;0.90;;
21480;SDS011;10902;48.158;8.634;2023-05-15T11:47:17;2.92;;;1.08;;
21480;SDS011;10902;48.158;8.634;2023-05-15T11:50:03;2.58;;;1.00;;
21480;SDS011;10902;48.158;8.634;2023-05-15T11:52:50;2.38;;;0.93;;
21480;SDS011;10902;48.158;8.634;2023-05-15T11:55:37;3.30;;;1.20;;
21480;SDS011;10902;48.158;8.634;2023-05-15T11:58:24;2.97;;;1.38;;
21480;SDS011;10902;48.158;8.634;2023-05-15T12:01:10;2.83;;;1.30;;
21480;SDS011;10902;48.158;8.634;2023-05-15T12:03:56;2.80;;;1.30;;
21480;SDS011;10902;48.158;8.634;2023-05-15T12:06:42;3.53;;;1.20;;
21480;SDS011;10902;48.158;8.634;2023-05-15T12:09:28;3.45;;;1.33;;
21480;SDS011;10902;48.158;8.634;2023-05-15T12:12:14;3.20;;;1.20;;
21480;SDS011;10902;48.158;8.634;2023-05-15T12:14:59;3.05;;;1.23;;
21480;SDS011;10902;48.158;8.634;2023-05-15T12:17:45;3.20;;;1.27;;
21480;SDS011;10902;48.158;8.634;2023-05-15T12:20:31;3.58;;;1.02;;
21480;SDS011;10902;48.158;8.634;2023-05-15T12:23:21;3.97;;;1.08;;
21480;SDS011;10902;48.158;8.634;2023-05-15T12:26:09;2.72;;;1.08;;
21480;SDS011;10902;48.158;8.634;2023-05-15T12:28:54;3.67;;;1.13;;
21480;SDS011;10902;48.158;8.634;2023-05-15T12:31:40;2.72;;;0.90;;
21480;SDS011;10902;48.158;8.634;2023-05-15T12:34:26;4.88;;;1.20;;
21480;SDS011;10902;48.158;8.634;2023-05-15T12:37:12;2.88;;;1.10;;
21480;SDS011;10902;48.158;8.634;2023-05-15T12:39:59;2.22;;;0.82;;
21480;SDS011;10902;48.158;8.634;2023-05-15T12:42:49;2.35;;;1.00;;
21480;SDS011;10902;48.158;8.634;2023-05-15T12:45:40;2.97;;;0.88;;
21480;SDS011;10902;48.158;8.634;2023-05-15T12:48:29;4.65;;;1.00;;
21480;SDS011;10902;48.158;8.634;2023-05-15T12:51:18;2.78;;;0.90;;
21480;SDS011;10902;48.158;8.634;2023-05-15T12:54:15;3.13;;;1.08;;
21480;SDS011;10902;48.158;8.634;2023-05-15T12:57:02;4.30;;;1.23;;
21480;SDS011;10902;48.158;8.634;2023-05-15T12:59:48;5.22;;;1.30;;
21480;SDS011;10902;48.158;8.634;2023-05-15T13:02:35;3.67;;;1.30;;
21480;SDS011;10902;48.158;8.634;2023-05-15T13:05:24;3.47;;;1.10;;
21480;SDS011;10902;48.158;8.634;2023-05-15T13:08:13;2.75;;;1.10;;
21480;SDS011;10902;48.158;8.634;2023-05-15T13:11:01;2.30;;;1.10;;
21480;SDS011;10902;48.158;8.634;2023-05-15T13:13:47;2.63;;;1.00;;
21480;SDS011;10902;48.158;8.634;2023-05-15T13:16:34;3.13;;;1.10;;
21480;SDS011;10902;48.158;8.634;2023-05-15T13:19:20;3.42;;;1.40;;
21480;SDS011;10902;48.158;8.634;2023-05-15T13:22:06;2.90;;;1.30;;
21480;SDS011;10902;48.158;8.634;2023-05-15T13:24:51;3.15;;;1.30;;
21480;SDS011;10902;48.158;8.634;2023-05-15T13:27:37;2.38;;;1.20;;
21480;SDS011;10902;48.158;8.634;2023-05-15T13:30:23;2.97;;;1.55;;
21480;SDS011;10902;48.158;8.634;2023-05-15T13:33:09;3.58;;;1.55;;
21480;SDS011;10902;48.158;8.634;2023-05-15T13:35:56;3.90;;;1.38;;
21480;SDS011;10902;48.158;8.634;2023-05-15T13:38:41;3.55;;;1.33;;
21480;SDS011;10902;48.158;8.634;2023-05-15T13:41:27;5.25;;;1.52;;
21480;SDS011;10902;48.158;8.634;2023-05-15T13:44:13;2.42;;;0.98;;
21480;SDS011;10902;48.158;8.634;2023-05-15T13:46:59;10.13;;;1.73;;
21480;SDS011;10902;48.158;8.634;2023-05-15T13:49:48;2.58;;;1.13;;
21480;SDS011;10902;48.158;8.634;2023-05-15T13:52:33;3.60;;;0.82;;
21480;SDS011;10902;48.158;8.634;2023-05-15T13:55:19;2.35;;;0.90;;
21480;SDS011;10902;48.158;8.634;2023-05-15T13:58:05;2.70;;;1.10;;
21480;SDS011;10902;48.158;8.634;2023-05-15T14:00:50;2.85;;;0.95;;
21480;SDS011;10902;48.158;8.634;2023-05-15T14:03:36;2.47;;;0.90;;
21480;SDS011;10902;48.158;8.634;2023-05-15T14:06:21;4.50;;;1.10;;
21480;SDS011;10902;48.158;8.634;2023-05-15T14:09:07;4.60;;;1.10;;
21480;SDS011;10902;48.158;8.634;2023-05-15T14:11:53;5.65;;;1.40;;
21480;SDS011;10902;48.158;8.634;2023-05-15T14:14:38;4.55;;;1.52;;
21480;SDS011;10902;48.158;8.634;2023-05-15T14:17:24;4.05;;;1.63;;
21480;SDS011;10902;48.158;8.634;2023-05-15T14:20:09;4.05;;;1.48;;
21480;SDS011;10902;48.158;8.634;2023-05-15T14:22:55;4.35;;;1.67;;
21480;SDS011;10902;48.158;8.634;2023-05-15T14:25:41;3.70;;;1.58;;
21480;SDS011;10902;48.158;8.634;2023-05-15T14:28:26;3.30;;;1.55;;
21480;SDS011;10902;48.158;8.634;2023-05-15T14:31:12;6.68;;;1.55;;
21480;SDS011;10902;48.158;8.634;2023-05-15T14:33:57;3.00;;;1.50;;
21480;SDS011;10902;48.158;8.634;2023-05-15T14:36:43;3.05;;;1.10;;
21480;SDS011;10902;48.158;8.634;2023-05-15T14:39:30;4.50;;;1.50;;
21480;SDS011;10902;48.158;8.634;2023-05-15T14:42:17;3.70;;;1.42;;
21480;SDS011;10902;48.158;8.634;2023-05-15T14:45:04;3.15;;;1.52;;
21480;SDS011;10902;48.158;8.634;2023-05-15T14:47:50;3.53;;;1.90;;
21480;SDS011;10902;48.158;8.634;2023-05-15T14:50:36;3.53;;;1.98;;
21480;SDS011;10902;48.158;8.634;2023-05-15T14:53:21;4.22;;;2.15;;
21480;SDS011;10902;48.158;8.634;2023-05-15T14:56:07;4.55;;;2.38;;
21480;SDS011;10902;48.158;8.634;2023-05-15T14:58:52;5.05;;;2.78;;
21480;SDS011;10902;48.158;8.634;2023-05-15T15:01:38;4.75;;;2.42;;
21480;SDS011;10902;48.158;8.634;2023-05-15T15:04:23;5.38;;;2.22;;
21480;SDS011;10902;48.158;8.634;2023-05-15T15:07:10;4.45;;;2.70;;
21480;SDS011;10902;48.158;8.634;2023-05-15T15:09:56;4.25;;;2.50;;
21480;SDS011;10902;48.158;8.634;2023-05-15T15:12:41;4.43;;;2.42;;
21480;SDS011;10902;48.158;8.634;2023-05-15T15:15:27;3.97;;;2.00;;
21480;SDS011;10902;48.158;8.634;2023-05-15T15:18:14;4.55;;;2.10;;
21480;SDS011;10902;48.158;8.634;2023-05-15T15:21:00;4.50;;;2.10;;
21480;SDS011;10902;48.158;8.634;2023-05-15T15:23:45;4.15;;;2.38;;
21480;SDS011;10902;48.158;8.634;2023-05-15T15:26:32;4.15;;;2.22;;
21480;SDS011;10902;48.158;8.634;2023-05-15T15:29:17;3.92;;;2.30;;
21480;SDS011;10902;48.158;8.634;2023-05-15T15:32:03;10.27;;;7.35;;
21480;SDS011;10902;48.158;8.634;2023-05-15T15:34:49;3.67;;;2.10;;
21480;SDS011;10902;48.158;8.634;2023-05-15T15:37:35;4.30;;;2.05;;
21480;SDS011;10902;48.158;8.634;2023-05-15T15:40:24;3.47;;;1.77;;
21480;SDS011;10902;48.158;8.634;2023-05-15T15:43:09;4.72;;;1.90;;
21480;SDS011;10902;48.158;8.634;2023-05-15T15:45:55;4.70;;;1.80;;
21480;SDS011;10902;48.158;8.634;2023-05-15T15:48:40;3.85;;;1.75;;
21480;SDS011;10902;48.158;8.634;2023-05-15T15:51:26;3.83;;;1.88;;
21480;SDS011;10902;48.158;8.634;2023-05-15T15:54:12;4.80;;;1.88;;
21480;SDS011;10902;48.158;8.634;2023-05-15T15:56:58;3.88;;;2.03;;
21480;SDS011;10902;48.158;8.634;2023-05-15T15:59:43;4.03;;;1.90;;
21480;SDS011;10902;48.158;8.634;2023-05-15T16:02:29;4.00;;;1.75;;
21480;SDS011;10902;48.158;8.634;2023-05-15T16:05:14;4.32;;;1.95;;
21480;SDS011;10902;48.158;8.634;2023-05-15T16:08:00;3.63;;;1.73;;
21480;SDS011;10902;48.158;8.634;2023-05-15T16:10:45;3.80;;;1.90;;
21480;SDS011;10902;48.158;8.634;2023-05-15T16:13:31;4.07;;;2.00;;
21480;SDS011;10902;48.158;8.634;2023-05-15T16:16:17;4.63;;;2.00;;
21480;SDS011;10902;48.158;8.634;2023-05-15T16:19:02;4.28;;;2.40;;
21480;SDS011;10902;48.158;8.634;2023-05-15T16:21:48;4.40;;;2.20;;
21480;SDS011;10902;48.158;8.634;2023-05-15T16:24:34;4.90;;;2.30;;
21480;SDS011;10902;48.158;8.634;2023-05-15T16:27:21;4.88;;;2.35;;
21480;SDS011;10902;48.158;8.634;2023-05-15T16:30:06;3.70;;;2.10;;
21480;SDS011;10902;48.158;8.634;2023-05-15T16:32:53;5.60;;;2.42;;
21480;SDS011;10902;48.158;8.634;2023-05-15T16:35:38;4.30;;;2.30;;
21480;SDS011;10902;48.158;8.634;2023-05-15T16:38:24;4.93;;;1.98;;
21480;SDS011;10902;48.158;8.634;2023-05-15T16:41:10;4.05;;;2.25;;
21480;SDS011;10902;48.158;8.634;2023-05-15T16:43:56;4.10;;;2.10;;
21480;SDS011;10902;48.158;8.634;2023-05-15T16:46:41;4.40;;;2.65;;
21480;SDS011;10902;48.158;8.634;2023-05-15T16:49:27;4.28;;;2.20;;
21480;SDS011;10902;48.158;8.634;2023-05-15T16:52:12;3.72;;;2.00;;